createdAt,value
2018-11-07T00:02:09.188Z,7.20
2018-11-07T00:04:37.139Z,7.20
2018-11-07T00:07:05.343Z,7.20
2018-11-07T00:09:33.385Z,7.20
2018-11-07T00:12:01.416Z,7.20
2018-11-07T00:14:29.456Z,7.20
2018-11-07T00:16:57.457Z,7.10
2018-11-07T00:19:25.385Z,7.10
2018-11-07T00:21:53.309Z,7.20
2018-11-07T00:24:21.258Z,7.10
2018-11-07T00:26:49.225Z,7.20
2018-11-07T00:29:17.205Z,7.20
2018-11-07T00:31:45.125Z,7.20
2018-11-07T00:34:13.056Z,7.20
2018-11-07T00:36:41.037Z,7.20
2018-11-07T00:39:09.583Z,7.20
2018-11-07T00:41:37.515Z,7.20
2018-11-07T00:44:05.553Z,7.30
2018-11-07T00:46:33.854Z,7.30
2018-11-07T00:49:01.922Z,7.20
2018-11-07T00:51:30.238Z,7.30
2018-11-07T00:53:58.303Z,7.30
2018-11-07T00:56:26.281Z,7.20
2018-11-07T00:58:54.347Z,7.10
2018-11-07T01:01:22.492Z,6.90
2018-11-07T01:03:50.475Z,6.80
2018-11-07T01:06:18.481Z,6.80
2018-11-07T01:08:46.417Z,6.70
2018-11-07T01:11:14.372Z,6.50
2018-11-07T01:13:42.357Z,6.50
2018-11-07T01:16:10.280Z,6.30
2018-11-07T01:18:38.303Z,6.30
2018-11-07T01:21:06.254Z,6.30
2018-11-07T01:23:34.364Z,6.20
2018-11-07T01:26:02.293Z,6.10
2018-11-07T01:28:30.253Z,6.00
2018-11-07T01:30:58.215Z,6.00
2018-11-07T01:33:26.128Z,6.00
2018-11-07T01:35:54.056Z,6.00
2018-11-07T01:38:22.021Z,6.00
2018-11-07T01:40:49.909Z,5.90
2018-11-07T01:43:17.866Z,5.90
2018-11-07T01:45:45.810Z,5.90
2018-11-07T01:48:13.736Z,5.90
2018-11-07T01:50:41.684Z,6.00
2018-11-07T01:53:09.611Z,6.10
2018-11-07T01:55:37.576Z,6.10
2018-11-07T01:58:05.747Z,6.10
2018-11-07T02:00:33.680Z,6.00
2018-11-07T02:03:01.624Z,5.90
2018-11-07T02:05:29.569Z,5.70
2018-11-07T02:07:57.459Z,5.60
2018-11-07T02:10:25.373Z,5.40
2018-11-07T02:12:53.368Z,5.30
2018-11-07T02:15:21.288Z,5.20
2018-11-07T02:17:49.254Z,5.30
2018-11-07T02:20:17.212Z,5.40
2018-11-07T02:22:45.176Z,5.40
2018-11-07T02:25:13.104Z,5.30
2018-11-07T02:27:41.142Z,5.20
2018-11-07T02:30:13.335Z,5.20
2018-11-07T02:32:41.305Z,5.20
2018-11-07T02:35:09.295Z,5.20
2018-11-07T02:37:37.224Z,5.20
2018-11-07T02:40:05.748Z,5.20
2018-11-07T02:42:33.663Z,5.20
2018-11-07T02:45:01.597Z,5.20
2018-11-07T02:47:29.490Z,5.10
2018-11-07T02:49:57.468Z,5.10
2018-11-07T02:52:25.392Z,5.10
2018-11-07T02:54:53.325Z,5.00
2018-11-07T02:57:21.261Z,5.00
2018-11-07T02:59:49.195Z,4.90
2018-11-07T03:02:17.226Z,4.90
2018-11-07T03:04:45.175Z,4.90
2018-11-07T03:07:13.120Z,4.90
2018-11-07T03:09:41.077Z,5.00
2018-11-07T03:12:09.018Z,5.00
2018-11-07T03:14:37.032Z,5.00
2018-11-07T03:17:05.005Z,5.00
2018-11-07T03:19:32.957Z,5.10
2018-11-07T03:22:00.852Z,5.10
2018-11-07T03:24:28.835Z,5.20
2018-11-07T03:26:56.728Z,5.00
2018-11-07T03:29:24.660Z,4.90
2018-11-07T03:31:52.608Z,4.80
2018-11-07T03:34:20.502Z,4.90
2018-11-07T03:36:48.465Z,4.80
2018-11-07T03:39:16.329Z,4.70
2018-11-07T03:41:44.348Z,4.70
2018-11-07T03:44:12.257Z,4.70
2018-11-07T03:46:40.183Z,4.70
2018-11-07T03:49:08.122Z,4.70
2018-11-07T03:51:36.080Z,4.80
2018-11-07T03:54:04.224Z,4.70
2018-11-07T03:56:32.154Z,4.70
2018-11-07T03:59:00.088Z,4.60
2018-11-07T04:01:28.077Z,4.60
2018-11-07T04:03:56.048Z,4.60
2018-11-07T04:06:23.974Z,4.50
2018-11-07T04:08:51.912Z,4.30
2018-11-07T04:11:19.852Z,4.30
2018-11-07T04:13:47.783Z,4.30
2018-11-07T04:16:15.699Z,4.40
2018-11-07T04:18:43.682Z,4.40
2018-11-07T04:21:11.608Z,4.40
2018-11-07T04:23:39.631Z,4.30
2018-11-07T04:26:07.543Z,4.30
2018-11-07T04:28:35.544Z,4.30
2018-11-07T04:31:03.523Z,4.30
2018-11-07T04:33:31.477Z,4.30
2018-11-07T04:35:59.465Z,4.30
2018-11-07T04:38:27.405Z,4.00
2018-11-07T04:40:55.316Z,3.60
2018-11-07T04:43:23.212Z,3.60
2018-11-07T04:45:51.176Z,3.70
2018-11-07T04:48:19.051Z,3.90
2018-11-07T04:50:47.003Z,4.10
2018-11-07T04:53:14.958Z,4.20
2018-11-07T04:55:42.864Z,4.20
2018-11-07T04:58:10.792Z,4.20
2018-11-07T05:00:38.704Z,4.10
2018-11-07T05:03:06.653Z,4.00
2018-11-07T05:05:34.580Z,4.10
2018-11-07T05:08:02.616Z,4.10
2018-11-07T05:10:30.556Z,4.10
2018-11-07T05:12:58.449Z,4.20
2018-11-07T05:15:26.383Z,4.30
2018-11-07T05:17:54.261Z,4.20
2018-11-07T05:20:22.232Z,4.00
2018-11-07T05:22:50.148Z,3.90
2018-11-07T05:25:18.076Z,3.70
2018-11-07T05:27:46.062Z,3.50
2018-11-07T05:30:14.008Z,3.50
2018-11-07T05:32:41.896Z,3.50
2018-11-07T05:35:09.871Z,3.40
2018-11-07T05:37:37.892Z,3.40
2018-11-07T05:40:05.815Z,3.40
2018-11-07T05:42:33.728Z,3.40
2018-11-07T05:45:01.672Z,3.30
2018-11-07T05:47:29.740Z,3.10
2018-11-07T05:49:57.696Z,3.20
2018-11-07T05:52:25.629Z,3.30
2018-11-07T05:54:53.570Z,3.30
2018-11-07T05:57:21.488Z,3.30
2018-11-07T05:59:49.459Z,3.30
2018-11-07T06:02:17.396Z,3.40
2018-11-07T06:04:45.299Z,3.40
2018-11-07T06:07:13.221Z,3.30
2018-11-07T06:09:41.392Z,3.20
2018-11-07T06:12:09.371Z,3.20
2018-11-07T06:14:37.315Z,3.30
2018-11-07T06:17:05.316Z,3.30
2018-11-07T06:19:33.227Z,3.50
2018-11-07T06:22:01.184Z,3.50
2018-11-07T06:24:29.247Z,3.50
2018-11-07T06:26:57.055Z,3.50
2018-11-07T06:29:24.975Z,3.40
2018-11-07T06:31:52.935Z,3.50
2018-11-07T06:34:20.869Z,3.60
2018-11-07T06:36:48.798Z,3.60
2018-11-07T06:39:16.749Z,3.60
2018-11-07T06:41:44.632Z,3.60
2018-11-07T06:44:12.579Z,3.10
2018-11-07T06:46:40.491Z,3.00
2018-11-07T06:49:08.412Z,3.00
2018-11-07T06:51:36.332Z,3.10
2018-11-07T06:54:04.519Z,3.30
2018-11-07T06:56:32.987Z,3.50
2018-11-07T06:59:00.993Z,3.80
2018-11-07T07:01:29.162Z,3.80
2018-11-07T07:03:57.031Z,3.90
2018-11-07T07:06:24.960Z,3.90
2018-11-07T07:08:53.573Z,4.00
2018-11-07T07:11:21.629Z,4.00
2018-11-07T07:13:49.728Z,4.20
2018-11-07T07:16:17.660Z,4.40
2018-11-07T07:18:45.611Z,4.50
2018-11-07T07:21:13.667Z,4.60
2018-11-07T07:23:41.616Z,4.80
2018-11-07T07:26:09.740Z,4.90
2018-11-07T07:28:38.156Z,5.00
2018-11-07T07:31:07.078Z,5.10
2018-11-07T07:33:35.533Z,5.20
2018-11-07T07:36:03.492Z,5.40
2018-11-07T07:38:31.623Z,5.50
2018-11-07T07:40:59.642Z,5.70
2018-11-07T09:51:33.661Z,10.80
2018-11-07T09:54:11.931Z,10.80
2018-11-07T09:56:46.224Z,11.00
2018-11-07T09:59:18.887Z,11.00
2018-11-07T10:01:51.872Z,11.10
2018-11-07T10:04:26.791Z,11.20
2018-11-07T10:07:04.025Z,11.20
2018-11-07T10:09:35.321Z,11.30
2018-11-07T10:12:03.642Z,11.40
2018-11-07T10:14:31.612Z,11.50
2018-11-07T10:16:59.628Z,11.60
2018-11-07T10:19:29.275Z,11.70
2018-11-07T10:21:57.274Z,11.70
2018-11-07T10:24:25.198Z,11.80
2018-11-07T10:26:55.215Z,11.80
2018-11-07T10:29:23.722Z,11.80
2018-11-07T10:31:51.413Z,11.80
2018-11-07T10:34:19.617Z,11.80
2018-11-07T10:36:47.652Z,11.80
2018-11-07T10:39:15.619Z,11.80
2018-11-07T10:41:43.809Z,11.80
2018-11-07T10:44:11.761Z,12.00
2018-11-07T10:46:39.742Z,12.20
2018-11-07T10:49:07.762Z,12.30
2018-11-07T10:51:35.738Z,12.50
2018-11-07T10:54:03.795Z,12.60
2018-11-07T10:56:31.797Z,12.60
2018-11-07T10:58:59.755Z,12.60
2018-11-07T11:01:33.324Z,12.70
2018-11-07T11:04:01.308Z,12.70
2018-11-07T11:06:29.318Z,12.80
2018-11-07T11:08:57.301Z,12.80
2018-11-07T11:11:25.456Z,12.70
2018-11-07T11:13:53.421Z,12.70
2018-11-07T11:16:21.454Z,12.80
2018-11-07T11:18:49.576Z,12.80
2018-11-07T11:21:17.573Z,12.90
2018-11-07T11:23:45.517Z,13.00
2018-11-07T11:26:13.629Z,13.00
2018-11-07T11:28:41.612Z,13.10
2018-11-07T11:31:09.663Z,13.20
2018-11-07T11:33:38.146Z,13.30
2018-11-07T11:36:06.201Z,13.40
2018-11-07T11:38:34.106Z,13.40
2018-11-07T11:41:04.015Z,13.40
2018-11-07T11:43:32.070Z,13.50
2018-11-07T11:46:01.507Z,13.70
2018-11-07T11:48:29.530Z,13.70
2018-11-07T11:50:57.568Z,13.70
2018-11-07T11:53:25.644Z,13.70
2018-11-07T11:55:53.623Z,13.70
2018-11-07T11:58:21.950Z,13.80
2018-11-07T12:00:49.981Z,13.80
2018-11-07T12:03:17.999Z,13.80
2018-11-07T12:05:45.968Z,13.90
2018-11-07T12:08:13.939Z,13.80
2018-11-07T12:10:41.923Z,13.80
2018-11-07T12:13:09.979Z,13.80
2018-11-07T12:15:37.886Z,14.00
2018-11-07T12:18:05.885Z,14.00
2018-11-07T12:20:33.912Z,14.00
2018-11-07T12:23:02.521Z,14.00
2018-11-07T12:25:30.477Z,14.10
2018-11-07T12:27:59.051Z,14.20
2018-11-07T12:30:27.176Z,14.20
2018-11-07T12:32:55.231Z,14.20
2018-11-07T12:35:24.204Z,14.30
2018-11-07T12:37:52.245Z,14.30
2018-11-07T12:40:20.660Z,14.40
2018-11-07T12:42:49.507Z,14.40
2018-11-07T12:45:17.792Z,14.50
2018-11-07T12:47:45.927Z,14.50
2018-11-07T12:50:19.824Z,14.50
2018-11-07T12:52:47.776Z,14.60
2018-11-07T12:55:16.146Z,14.60
2018-11-07T12:57:44.927Z,14.60
2018-11-07T13:00:15.452Z,14.70
2018-11-07T13:02:43.412Z,14.60
2018-11-07T13:05:12.691Z,14.60
2018-11-07T13:07:41.568Z,14.70
2018-11-07T13:10:12.986Z,14.70
2018-11-07T13:12:41.971Z,14.70
2018-11-07T13:15:10.848Z,14.80
2018-11-07T13:17:38.984Z,14.90
2018-11-07T13:20:10.437Z,15.00
2018-11-07T13:22:38.385Z,15.00
2018-11-07T13:25:08.499Z,15.10
2018-11-07T13:27:36.680Z,15.00
2018-11-07T13:30:06.571Z,15.00
2018-11-07T13:32:34.585Z,15.00
2018-11-07T13:35:02.663Z,14.90
2018-11-07T13:37:30.964Z,14.90
2018-11-07T13:39:58.709Z,14.90
2018-11-07T13:42:26.785Z,14.90
2018-11-07T13:44:54.701Z,15.00
2018-11-07T13:47:22.836Z,15.00
2018-11-07T13:49:50.746Z,14.90
2018-11-07T13:52:18.831Z,14.80
2018-11-07T13:54:46.824Z,14.90
2018-11-07T13:57:14.895Z,14.80
2018-11-07T13:59:42.931Z,14.70
2018-11-07T14:02:10.834Z,14.70
2018-11-07T14:04:38.784Z,14.80
2018-11-07T14:07:06.738Z,14.80
2018-11-07T14:09:34.821Z,14.80
2018-11-07T14:12:02.827Z,14.80
2018-11-07T14:14:30.864Z,14.70
2018-11-07T14:16:58.826Z,14.70
2018-11-07T14:19:27.299Z,14.70
2018-11-07T14:22:00.279Z,14.70
2018-11-07T14:24:31.452Z,14.60
2018-11-07T14:27:01.505Z,14.50
2018-11-07T14:29:33.979Z,14.50
2018-11-07T14:32:04.517Z,14.40
2018-11-07T14:34:33.080Z,14.40
2018-11-07T14:37:01.187Z,14.30
2018-11-07T14:39:29.446Z,14.30
2018-11-07T14:41:57.421Z,14.20
2018-11-07T14:44:28.870Z,14.10
2018-11-07T14:46:58.395Z,14.00
2018-11-07T14:49:41.675Z,13.90
2018-11-07T14:52:16.443Z,13.90
2018-11-07T14:54:58.832Z,13.70
2018-11-07T14:57:31.030Z,13.60
2018-11-07T15:00:01.548Z,13.50
2018-11-07T15:02:29.940Z,13.50
2018-11-07T15:04:58.113Z,13.40
2018-11-07T15:07:26.235Z,13.40
2018-11-07T15:09:54.371Z,13.40
2018-11-07T15:12:22.696Z,13.40
2018-11-07T15:14:50.884Z,13.20
2018-11-07T15:17:19.091Z,13.10
2018-11-07T15:19:47.255Z,12.90
2018-11-07T15:22:15.334Z,12.80
2018-11-07T15:24:43.501Z,12.70
2018-11-07T15:27:11.763Z,12.70
2018-11-07T15:29:39.993Z,12.60
2018-11-07T15:32:07.942Z,12.50
2018-11-07T15:34:37.218Z,12.30
2018-11-07T15:37:07.650Z,12.10
2018-11-07T15:39:37.084Z,12.10
2018-11-07T15:42:05.200Z,12.00
2018-11-07T15:44:33.547Z,11.90
2018-11-07T15:47:01.794Z,11.80
2018-11-07T15:49:29.896Z,11.70
2018-11-07T15:51:57.989Z,11.70
2018-11-07T15:54:26.316Z,11.60
2018-11-07T15:56:54.323Z,11.50
2018-11-07T15:59:22.554Z,11.40
2018-11-07T16:01:50.720Z,11.30
2018-11-07T16:04:19.021Z,11.20
2018-11-07T16:06:47.189Z,11.20
2018-11-07T16:09:15.389Z,11.10
2018-11-07T16:11:43.720Z,11.00
2018-11-07T16:14:12.106Z,10.90
2018-11-07T16:16:40.210Z,10.80
2018-11-07T16:19:08.253Z,10.70
2018-11-07T16:21:36.342Z,10.50
2018-11-07T16:24:05.287Z,9.90
2018-11-07T16:26:34.780Z,9.50
2018-11-07T16:29:04.446Z,9.30
2018-11-07T16:31:32.539Z,9.20
2018-11-07T16:34:00.757Z,9.40
2018-11-07T16:36:41.183Z,9.50
2018-11-07T16:39:16.360Z,9.50
2018-11-07T16:41:47.338Z,9.30
2018-11-07T16:44:17.768Z,9.30
2018-11-07T16:46:53.222Z,9.20
2018-11-07T16:49:23.616Z,9.20
2018-11-07T16:51:52.175Z,9.20
2018-11-07T16:54:23.274Z,9.00
2018-11-07T16:56:51.421Z,8.80
2018-11-07T16:59:19.726Z,8.80
2018-11-07T17:01:47.695Z,8.70
2018-11-07T17:04:15.712Z,8.60
2018-11-07T17:06:43.590Z,8.60
2018-11-07T17:09:11.783Z,8.50
2018-11-07T17:11:40.449Z,8.50
2018-11-07T17:14:08.639Z,8.60
2018-11-07T17:16:36.772Z,8.40
2018-11-07T17:19:04.749Z,8.30
2018-11-07T17:21:32.750Z,8.40
2018-11-07T17:24:00.873Z,8.40
2018-11-07T17:26:29.809Z,8.30
2018-11-07T17:28:57.728Z,8.20
2018-11-07T17:31:25.822Z,8.30
2018-11-07T17:33:53.709Z,8.30
2018-11-07T17:36:21.617Z,8.20
2018-11-07T17:38:49.630Z,8.20
2018-11-07T17:41:17.765Z,8.20
2018-11-07T17:43:45.874Z,8.20
2018-11-07T17:46:13.839Z,8.10
2018-11-07T17:48:41.801Z,7.90
2018-11-07T17:51:09.832Z,7.90
2018-11-07T17:53:37.794Z,7.90
2018-11-07T17:56:05.820Z,7.90
2018-11-07T17:58:33.764Z,8.00
2018-11-07T18:01:01.651Z,8.20
2018-11-07T18:03:31.693Z,8.30
2018-11-07T18:06:01.826Z,8.30
2018-11-07T18:08:29.767Z,8.20
2018-11-07T18:10:57.681Z,8.10
2018-11-07T18:13:25.575Z,8.10
2018-11-07T18:15:53.523Z,8.00
2018-11-07T18:18:21.457Z,7.90
2018-11-07T18:20:49.358Z,7.90
2018-11-07T18:23:17.344Z,7.90
2018-11-07T18:25:45.281Z,7.80
2018-11-07T18:28:13.219Z,7.70
2018-11-07T18:30:41.380Z,7.60
2018-11-07T18:33:09.617Z,7.60
2018-11-07T18:35:37.773Z,7.70
2018-11-07T18:38:06.253Z,7.70
2018-11-07T18:40:34.489Z,7.60
2018-11-07T18:43:02.664Z,7.60
2018-11-07T18:45:30.516Z,7.60
2018-11-07T18:47:58.418Z,7.60
2018-11-07T18:50:26.751Z,7.60
2018-11-07T18:52:54.797Z,7.60
2018-11-07T18:55:22.824Z,7.60
2018-11-07T18:57:51.015Z,7.50
2018-11-07T19:00:19.952Z,7.40
2018-11-07T19:02:48.845Z,7.30
2018-11-07T19:05:16.883Z,7.10
2018-11-07T19:07:46.126Z,7.00
2018-11-07T19:10:16.220Z,7.00
2018-11-07T19:12:45.004Z,6.90
2018-11-07T19:15:14.064Z,7.00
2018-11-07T19:17:43.237Z,7.00
2018-11-07T19:20:12.552Z,6.90
2018-11-07T19:22:40.898Z,6.80
2018-11-07T19:25:11.411Z,6.60
2018-11-07T19:27:39.667Z,6.50
2018-11-07T19:30:10.359Z,6.30
2018-11-07T19:32:38.480Z,6.30
2018-11-07T19:35:08.276Z,6.50
2018-11-07T19:37:36.367Z,6.70
2018-11-07T19:40:05.830Z,6.80
2018-11-07T19:42:34.172Z,6.90
2018-11-07T19:45:02.215Z,6.80
2018-11-07T19:47:30.668Z,6.80
2018-11-07T19:49:58.917Z,6.70
2018-11-07T19:52:27.039Z,6.70
2018-11-07T19:54:55.191Z,6.70
2018-11-07T19:57:23.181Z,6.70
2018-11-07T19:59:51.236Z,6.80
2018-11-07T20:02:19.345Z,6.90
2018-11-07T20:04:47.341Z,7.00
2018-11-07T20:07:15.605Z,6.90
2018-11-07T20:09:43.674Z,7.00
2018-11-07T20:12:11.816Z,7.00
2018-11-07T20:14:40.965Z,7.00
2018-11-07T20:17:09.214Z,6.90
2018-11-07T20:19:37.195Z,6.90
2018-11-07T20:22:05.516Z,6.80
2018-11-07T20:24:33.428Z,6.60
2018-11-07T20:27:01.524Z,6.50
2018-11-07T20:29:29.668Z,6.30
2018-11-07T20:31:57.824Z,6.40
2018-11-07T20:34:26.026Z,6.50
2018-11-07T20:36:54.217Z,6.60
2018-11-07T20:39:22.380Z,6.70
2018-11-07T20:41:50.769Z,6.60
2018-11-07T20:44:18.730Z,6.60
2018-11-07T20:46:46.931Z,6.80
2018-11-07T20:49:15.085Z,6.70
2018-11-07T20:51:43.160Z,6.60
2018-11-07T20:54:11.329Z,6.60
2018-11-07T20:56:39.588Z,6.50
2018-11-07T20:59:07.926Z,6.60
2018-11-07T21:01:36.280Z,6.80
2018-11-07T21:04:04.350Z,6.90
2018-11-07T21:06:32.542Z,7.00
2018-11-07T21:09:00.527Z,7.10
2018-11-07T21:11:28.462Z,7.20
2018-11-07T21:13:56.354Z,7.20
2018-11-07T21:16:24.309Z,7.30
2018-11-07T21:18:52.391Z,7.20
2018-11-07T21:21:20.426Z,7.20
2018-11-07T21:23:48.545Z,7.20
2018-11-07T21:26:16.681Z,7.10
2018-11-07T21:28:45.005Z,7.00
2018-11-07T21:31:13.217Z,6.90
2018-11-07T21:33:41.157Z,6.70
2018-11-07T21:36:09.093Z,6.50
2018-11-07T21:38:37.165Z,6.30
2018-11-07T21:41:05.457Z,6.20
2018-11-07T21:43:33.713Z,6.10
2018-11-07T21:46:01.896Z,5.90
2018-11-07T21:48:30.074Z,5.90
2018-11-07T21:50:58.263Z,5.90
2018-11-07T21:53:26.418Z,5.80
2018-11-07T21:55:54.512Z,5.70
2018-11-07T21:58:22.675Z,5.60
2018-11-07T22:00:50.953Z,5.50
2018-11-07T22:03:19.009Z,5.50
2018-11-07T22:05:47.224Z,5.50
2018-11-07T22:08:15.384Z,5.50
2018-11-07T22:10:43.443Z,5.50
2018-11-07T22:13:11.447Z,5.50
2018-11-07T22:15:39.347Z,5.40
2018-11-07T22:18:07.382Z,5.50
2018-11-07T22:20:35.516Z,5.60
2018-11-07T22:23:03.672Z,5.60
2018-11-07T22:25:32.091Z,5.80
2018-11-07T22:28:00.189Z,5.70
2018-11-07T22:30:28.368Z,5.80
2018-11-07T22:32:56.404Z,5.70
2018-11-07T22:35:24.612Z,5.70
2018-11-07T22:37:52.895Z,5.70
2018-11-07T22:40:20.967Z,5.70
2018-11-07T22:42:49.102Z,5.70
2018-11-07T22:45:17.405Z,5.80
2018-11-07T22:47:45.771Z,5.90
2018-11-07T22:50:14.899Z,5.90
2018-11-07T22:52:43.911Z,6.00
2018-11-07T22:55:11.958Z,6.00
2018-11-07T22:57:39.944Z,5.90
2018-11-07T23:00:17.645Z,5.70
2018-11-07T23:02:45.813Z,5.50
2018-11-07T23:05:14.482Z,5.30
2018-11-07T23:07:42.589Z,5.20
2018-11-07T23:10:10.947Z,5.40
2018-11-07T23:12:39.123Z,5.70
2018-11-07T23:15:07.772Z,5.90
2018-11-07T23:17:35.992Z,6.10
2018-11-07T23:20:06.696Z,6.10
2018-11-07T23:22:34.846Z,6.20
2018-11-07T23:25:03.258Z,6.10
2018-11-07T23:27:31.460Z,5.90
2018-11-07T23:29:59.809Z,5.80
2018-11-07T23:32:27.903Z,5.60
2018-11-07T23:34:56.089Z,5.50
2018-11-07T23:37:24.117Z,5.40
2018-11-07T23:39:52.317Z,5.40
2018-11-07T23:42:20.488Z,5.30
2018-11-07T23:44:48.612Z,5.30
2018-11-07T23:47:16.657Z,5.20
2018-11-07T23:49:47.128Z,5.20
2018-11-07T23:52:22.676Z,5.10
2018-11-07T23:55:00.013Z,5.20
2018-11-07T23:57:31.906Z,5.00
